sensor_id;sensor_type;location;lat;lon;timestamp;P1;durP1;ratioP1;P2;durP2;ratioP2
63112;SDS011;49206;48.020;21.378;2023-04-15T00:00:33;14.48;;;10.15;;
63112;SDS011;49206;48.020;21.378;2023-04-15T00:01:36;18.05;;;10.15;;
63112;SDS011;49206;48.020;21.378;2023-04-15T00:02:39;17.60;;;10.82;;
63112;SDS011;49206;48.020;21.378;2023-04-15T00:03:42;16.73;;;9.93;;
63112;SDS011;49206;48.020;21.378;2023-04-15T00:04:45;15.75;;;10.00;;
63112;SDS011;49206;48.020;21.378;2023-04-15T00:05:48;17.00;;;10.93;;
63112;SDS011;49206;48.020;21.378;2023-04-15T00:06:50;19.55;;;12.73;;
63112;SDS011;49206;48.020;21.378;2023-04-15T00:07:56;18.73;;;11.35;;
63112;SDS011;49206;48.020;21.378;2023-04-15T00:08:59;18.08;;;10.82;;
63112;SDS011;49206;48.020;21.378;2023-04-15T00:10:03;17.63;;;11.15;;
63112;SDS011;49206;48.020;21.378;2023-04-15T00:11:06;19.98;;;12.68;;
63112;SDS011;49206;48.020;21.378;2023-04-15T00:12:09;20.17;;;12.02;;
63112;SDS011;49206;48.020;21.378;2023-04-15T00:13:12;19.45;;;12.15;;
63112;SDS011;49206;48.020;21.378;2023-04-15T00:14:16;18.52;;;12.38;;
63112;SDS011;49206;48.020;21.378;2023-04-15T00:15:18;20.80;;;12.63;;
63112;SDS011;49206;48.020;21.378;2023-04-15T00:16:21;19.45;;;12.65;;
63112;SDS011;49206;48.020;21.378;2023-04-15T00:17:24;22.63;;;12.90;;
63112;SDS011;49206;48.020;21.378;2023-04-15T00:18:26;23.17;;;13.80;;
63112;SDS011;49206;48.020;21.378;2023-04-15T00:19:30;23.77;;;13.85;;
63112;SDS011;49206;48.020;21.378;2023-04-15T00:20:34;19.85;;;12.90;;
63112;SDS011;49206;48.020;21.378;2023-04-15T00:21:39;22.95;;;14.25;;
63112;SDS011;49206;48.020;21.378;2023-04-15T00:22:42;22.35;;;14.50;;
63112;SDS011;49206;48.020;21.378;2023-04-15T00:23:44;21.90;;;13.73;;
63112;SDS011;49206;48.020;21.378;2023-04-15T00:24:51;22.25;;;14.57;;
63112;SDS011;49206;48.020;21.378;2023-04-15T00:25:55;21.65;;;12.80;;
63112;SDS011;49206;48.020;21.378;2023-04-15T00:26:58;20.88;;;13.02;;
63112;SDS011;49206;48.020;21.378;2023-04-15T00:28:01;23.95;;;13.85;;
63112;SDS011;49206;48.020;21.378;2023-04-15T00:29:03;24.67;;;13.73;;
63112;SDS011;49206;48.020;21.378;2023-04-15T00:30:06;22.42;;;13.98;;
63112;SDS011;49206;48.020;21.378;2023-04-15T00:31:09;22.02;;;13.73;;
63112;SDS011;49206;48.020;21.378;2023-04-15T00:32:11;20.20;;;13.43;;
63112;SDS011;49206;48.020;21.378;2023-04-15T00:33:14;23.92;;;13.60;;
63112;SDS011;49206;48.020;21.378;2023-04-15T00:34:20;19.98;;;12.88;;
63112;SDS011;49206;48.020;21.378;2023-04-15T00:35:23;23.05;;;13.38;;
63112;SDS011;49206;48.020;21.378;2023-04-15T00:36:26;20.08;;;12.77;;
63112;SDS011;49206;48.020;21.378;2023-04-15T00:37:28;24.83;;;13.07;;
63112;SDS011;49206;48.020;21.378;2023-04-15T00:38:31;23.42;;;13.80;;
63112;SDS011;49206;48.020;21.378;2023-04-15T00:39:34;22.92;;;13.40;;
63112;SDS011;49206;48.020;21.378;2023-04-15T00:40:37;23.35;;;13.48;;
63112;SDS011;49206;48.020;21.378;2023-04-15T00:41:39;18.33;;;11.88;;
63112;SDS011;49206;48.020;21.378;2023-04-15T00:42:42;18.67;;;11.85;;
63112;SDS011;49206;48.020;21.378;2023-04-15T00:43:47;19.98;;;12.43;;
63112;SDS011;49206;48.020;21.378;2023-04-15T00:44:50;19.98;;;11.65;;
63112;SDS011;49206;48.020;21.378;2023-04-15T00:45:52;22.42;;;12.73;;
63112;SDS011;49206;48.020;21.378;2023-04-15T00:46:56;19.92;;;11.50;;
63112;SDS011;49206;48.020;21.378;2023-04-15T00:47:59;16.45;;;11.23;;
63112;SDS011;49206;48.020;21.378;2023-04-15T00:49:03;17.45;;;12.18;;
63112;SDS011;49206;48.020;21.378;2023-04-15T00:50:07;21.15;;;11.90;;
63112;SDS011;49206;48.020;21.378;2023-04-15T00:51:10;19.98;;;11.95;;
63112;SDS011;49206;48.020;21.378;2023-04-15T00:52:12;18.48;;;11.80;;
63112;SDS011;49206;48.020;21.378;2023-04-15T00:53:18;21.63;;;12.50;;
63112;SDS011;49206;48.020;21.378;2023-04-15T00:54:21;24.58;;;13.50;;
63112;SDS011;49206;48.020;21.378;2023-04-15T00:55:24;17.05;;;12.15;;
63112;SDS011;49206;48.020;21.378;2023-04-15T00:56:26;26.85;;;14.20;;
63112;SDS011;49206;48.020;21.378;2023-04-15T00:57:30;25.23;;;14.40;;
63112;SDS011;49206;48.020;21.378;2023-04-15T00:58:33;27.38;;;14.13;;
63112;SDS011;49206;48.020;21.378;2023-04-15T00:59:35;25.10;;;13.50;;
63112;SDS011;49206;48.020;21.378;2023-04-15T01:00:38;23.35;;;13.43;;
63112;SDS011;49206;48.020;21.378;2023-04-15T01:01:44;22.17;;;12.98;;
63112;SDS011;49206;48.020;21.378;2023-04-15T01:02:47;23.55;;;13.50;;
63112;SDS011;49206;48.020;21.378;2023-04-15T01:03:50;20.23;;;13.27;;
63112;SDS011;49206;48.020;21.378;2023-04-15T01:04:53;19.95;;;13.00;;
63112;SDS011;49206;48.020;21.378;2023-04-15T01:05:55;21.67;;;13.35;;
63112;SDS011;49206;48.020;21.378;2023-04-15T01:07:04;21.98;;;12.60;;
63112;SDS011;49206;48.020;21.378;2023-04-15T01:08:07;19.70;;;12.40;;
63112;SDS011;49206;48.020;21.378;2023-04-15T01:09:11;23.55;;;13.85;;
63112;SDS011;49206;48.020;21.378;2023-04-15T01:10:13;29.30;;;13.48;;
63112;SDS011;49206;48.020;21.378;2023-04-15T01:11:16;26.75;;;13.50;;
63112;SDS011;49206;48.020;21.378;2023-04-15T01:12:19;22.98;;;14.00;;
63112;SDS011;49206;48.020;21.378;2023-04-15T01:13:24;25.20;;;14.30;;
63112;SDS011;49206;48.020;21.378;2023-04-15T01:14:30;24.75;;;14.63;;
63112;SDS011;49206;48.020;21.378;2023-04-15T01:15:33;29.77;;;16.10;;
63112;SDS011;49206;48.020;21.378;2023-04-15T01:16:37;33.00;;;16.08;;
63112;SDS011;49206;48.020;21.378;2023-04-15T01:17:40;31.50;;;16.67;;
63112;SDS011;49206;48.020;21.378;2023-04-15T01:18:43;27.48;;;14.60;;
63112;SDS011;49206;48.020;21.378;2023-04-15T01:19:46;24.67;;;15.38;;
63112;SDS011;49206;48.020;21.378;2023-04-15T01:20:48;24.65;;;14.75;;
63112;SDS011;49206;48.020;21.378;2023-04-15T01:21:51;31.05;;;15.10;;
63112;SDS011;49206;48.020;21.378;2023-04-15T01:22:53;26.27;;;15.38;;
63112;SDS011;49206;48.020;21.378;2023-04-15T01:23:56;26.27;;;14.85;;
63112;SDS011;49206;48.020;21.378;2023-04-15T01:25:00;28.20;;;15.30;;
63112;SDS011;49206;48.020;21.378;2023-04-15T01:26:09;31.00;;;14.73;;
63112;SDS011;49206;48.020;21.378;2023-04-15T01:27:14;25.90;;;12.93;;
63112;SDS011;49206;48.020;21.378;2023-04-15T01:28:17;26.60;;;13.63;;
63112;SDS011;49206;48.020;21.378;2023-04-15T01:29:20;30.25;;;14.82;;
63112;SDS011;49206;48.020;21.378;2023-04-15T01:30:24;29.02;;;15.50;;
63112;SDS011;49206;48.020;21.378;2023-04-15T01:31:28;24.08;;;15.23;;
63112;SDS011;49206;48.020;21.378;2023-04-15T01:32:31;26.30;;;15.15;;
63112;SDS011;49206;48.020;21.378;2023-04-15T01:33:34;32.13;;;15.40;;
63112;SDS011;49206;48.020;21.378;2023-04-15T01:34:36;26.98;;;14.95;;
63112;SDS011;49206;48.020;21.378;2023-04-15T01:35:38;24.58;;;14.45;;
63112;SDS011;49206;48.020;21.378;2023-04-15T01:36:41;24.95;;;14.35;;
63112;SDS011;49206;48.020;21.378;2023-04-15T01:37:43;23.23;;;13.65;;
63112;SDS011;49206;48.020;21.378;2023-04-15T01:38:46;20.95;;;13.40;;
63112;SDS011;49206;48.020;21.378;2023-04-15T01:39:49;24.17;;;13.98;;
63112;SDS011;49206;48.020;21.378;2023-04-15T01:40:52;19.88;;;13.25;;
63112;SDS011;49206;48.020;21.378;2023-04-15T01:41:54;23.67;;;13.85;;
63112;SDS011;49206;48.020;21.378;2023-04-15T01:42:58;22.10;;;13.20;;
63112;SDS011;49206;48.020;21.378;2023-04-15T01:44:01;19.98;;;12.82;;
63112;SDS011;49206;48.020;21.378;2023-04-15T01:45:03;19.42;;;12.48;;
63112;SDS011;49206;48.020;21.378;2023-04-15T01:46:07;18.25;;;12.40;;
63112;SDS011;49206;48.020;21.378;2023-04-15T01:47:13;20.65;;;11.85;;
63112;SDS011;49206;48.020;21.378;2023-04-15T01:48:16;20.60;;;11.88;;
63112;SDS011;49206;48.020;21.378;2023-04-15T01:49:18;19.63;;;12.88;;
63112;SDS011;49206;48.020;21.378;2023-04-15T01:50:21;25.65;;;12.98;;
63112;SDS011;49206;48.020;21.378;2023-04-15T01:51:23;22.42;;;13.48;;
63112;SDS011;49206;48.020;21.378;2023-04-15T01:52:26;24.60;;;14.77;;
63112;SDS011;49206;48.020;21.378;2023-04-15T01:53:28;28.05;;;15.70;;
63112;SDS011;49206;48.020;21.378;2023-04-15T01:54:30;25.58;;;15.02;;
63112;SDS011;49206;48.020;21.378;2023-04-15T01:55:33;28.50;;;15.70;;
63112;SDS011;49206;48.020;21.378;2023-04-15T01:56:44;22.23;;;12.90;;
63112;SDS011;49206;48.020;21.378;2023-04-15T01:57:46;21.50;;;13.93;;
63112;SDS011;49206;48.020;21.378;2023-04-15T01:58:48;23.02;;;14.35;;
63112;SDS011;49206;48.020;21.378;2023-04-15T01:59:51;21.60;;;14.50;;
63112;SDS011;49206;48.020;21.378;2023-04-15T02:00:55;24.25;;;14.15;;
63112;SDS011;49206;48.020;21.378;2023-04-15T02:01:58;22.52;;;14.20;;
63112;SDS011;49206;48.020;21.378;2023-04-15T02:03:01;23.00;;;14.25;;
63112;SDS011;49206;48.020;21.378;2023-04-15T02:04:04;22.50;;;13.80;;
63112;SDS011;49206;48.020;21.378;2023-04-15T02:05:06;23.23;;;15.57;;
63112;SDS011;49206;48.020;21.378;2023-04-15T02:06:10;22.35;;;14.27;;
63112;SDS011;49206;48.020;21.378;2023-04-15T02:07:13;24.52;;;14.77;;
63112;SDS011;49206;48.020;21.378;2023-04-15T02:08:15;25.23;;;15.25;;
63112;SDS011;49206;48.020;21.378;2023-04-15T02:09:18;23.08;;;14.60;;
63112;SDS011;49206;48.020;21.378;2023-04-15T02:10:21;35.35;;;14.38;;
63112;SDS011;49206;48.020;21.378;2023-04-15T02:11:24;25.73;;;15.80;;
63112;SDS011;49206;48.020;21.378;2023-04-15T02:12:27;24.75;;;15.65;;
63112;SDS011;49206;48.020;21.378;2023-04-15T02:13:29;25.75;;;15.00;;
63112;SDS011;49206;48.020;21.378;2023-04-15T02:14:31;24.52;;;14.40;;
63112;SDS011;49206;48.020;21.378;2023-04-15T02:15:34;24.98;;;14.77;;
63112;SDS011;49206;48.020;21.378;2023-04-15T02:16:36;28.27;;;16.13;;
63112;SDS011;49206;48.020;21.378;2023-04-15T02:17:39;23.75;;;15.88;;
63112;SDS011;49206;48.020;21.378;2023-04-15T02:18:42;32.03;;;16.15;;
63112;SDS011;49206;48.020;21.378;2023-04-15T02:19:45;39.08;;;18.13;;
63112;SDS011;49206;48.020;21.378;2023-04-15T02:20:50;36.40;;;17.50;;
63112;SDS011;49206;48.020;21.378;2023-04-15T02:21:57;31.50;;;17.27;;
63112;SDS011;49206;48.020;21.378;2023-04-15T02:22:59;35.08;;;19.30;;
63112;SDS011;49206;48.020;21.378;2023-04-15T02:24:02;41.80;;;18.17;;
63112;SDS011;49206;48.020;21.378;2023-04-15T02:25:05;44.63;;;19.88;;
63112;SDS011;49206;48.020;21.378;2023-04-15T02:26:08;43.03;;;20.50;;
63112;SDS011;49206;48.020;21.378;2023-04-15T02:27:14;45.70;;;20.98;;
63112;SDS011;49206;48.020;21.378;2023-04-15T02:28:17;42.78;;;19.70;;
63112;SDS011;49206;48.020;21.378;2023-04-15T02:29:20;37.22;;;16.92;;
63112;SDS011;49206;48.020;21.378;2023-04-15T02:30:23;38.95;;;18.95;;
63112;SDS011;49206;48.020;21.378;2023-04-15T02:31:27;40.90;;;18.80;;
63112;SDS011;49206;48.020;21.378;2023-04-15T02:32:29;40.72;;;19.67;;
63112;SDS011;49206;48.020;21.378;2023-04-15T02:33:32;30.10;;;16.25;;
63112;SDS011;49206;48.020;21.378;2023-04-15T02:34:34;27.23;;;15.93;;
63112;SDS011;49206;48.020;21.378;2023-04-15T02:35:38;28.70;;;15.82;;
63112;SDS011;49206;48.020;21.378;2023-04-15T02:36:45;27.60;;;16.45;;
63112;SDS011;49206;48.020;21.378;2023-04-15T02:37:50;29.85;;;16.58;;
63112;SDS011;49206;48.020;21.378;2023-04-15T02:38:52;27.17;;;16.33;;
63112;SDS011;49206;48.020;21.378;2023-04-15T02:39:55;27.50;;;16.02;;
63112;SDS011;49206;48.020;21.378;2023-04-15T02:40:57;26.52;;;15.07;;
63112;SDS011;49206;48.020;21.378;2023-04-15T02:42:00;26.00;;;15.32;;
63112;SDS011;49206;48.020;21.378;2023-04-15T02:43:02;30.25;;;15.65;;
63112;SDS011;49206;48.020;21.378;2023-04-15T02:44:06;36.17;;;19.90;;
63112;SDS011;49206;48.020;21.378;2023-04-15T02:45:13;36.28;;;18.15;;
63112;SDS011;49206;48.020;21.378;2023-04-15T02:46:16;39.67;;;19.50;;
63112;SDS011;49206;48.020;21.378;2023-04-15T02:47:19;36.17;;;18.02;;
63112;SDS011;49206;48.020;21.378;2023-04-15T02:48:24;31.15;;;15.98;;
63112;SDS011;49206;48.020;21.378;2023-04-15T02:49:27;27.02;;;16.17;;
63112;SDS011;49206;48.020;21.378;2023-04-15T02:50:31;28.55;;;14.98;;
63112;SDS011;49206;48.020;21.378;2023-04-15T02:51:34;30.45;;;16.08;;
63112;SDS011;49206;48.020;21.378;2023-04-15T02:52:41;23.67;;;13.00;;
63112;SDS011;49206;48.020;21.378;2023-04-15T02:53:45;23.15;;;14.30;;
63112;SDS011;49206;48.020;21.378;2023-04-15T02:54:57;25.80;;;14.65;;
63112;SDS011;49206;48.020;21.378;2023-04-15T02:56:03;23.38;;;13.15;;
63112;SDS011;49206;48.020;21.378;2023-04-15T02:57:07;24.60;;;14.10;;
63112;SDS011;49206;48.020;21.378;2023-04-15T02:58:09;24.63;;;13.60;;
63112;SDS011;49206;48.020;21.378;2023-04-15T02:59:12;22.77;;;13.43;;
63112;SDS011;49206;48.020;21.378;2023-04-15T03:00:15;27.38;;;15.38;;
63112;SDS011;49206;48.020;21.378;2023-04-15T03:01:20;30.13;;;14.95;;
63112;SDS011;49206;48.020;21.378;2023-04-15T03:02:23;26.65;;;13.80;;
63112;SDS011;49206;48.020;21.378;2023-04-15T03:03:34;25.13;;;13.45;;
63112;SDS011;49206;48.020;21.378;2023-04-15T03:04:44;23.60;;;12.82;;
63112;SDS011;49206;48.020;21.378;2023-04-15T03:05:47;25.02;;;12.50;;
63112;SDS011;49206;48.020;21.378;2023-04-15T03:06:51;26.70;;;13.57;;
63112;SDS011;49206;48.020;21.378;2023-04-15T03:07:53;23.48;;;13.43;;
63112;SDS011;49206;48.020;21.378;2023-04-15T03:08:56;19.80;;;12.38;;
63112;SDS011;49206;48.020;21.378;2023-04-15T03:10:01;23.80;;;12.52;;
63112;SDS011;49206;48.020;21.378;2023-04-15T03:11:04;20.23;;;12.57;;
63112;SDS011;49206;48.020;21.378;2023-04-15T03:12:10;18.02;;;12.23;;
63112;SDS011;49206;48.020;21.378;2023-04-15T03:13:12;20.80;;;11.82;;
63112;SDS011;49206;48.020;21.378;2023-04-15T03:14:15;20.58;;;12.60;;
63112;SDS011;49206;48.020;21.378;2023-04-15T03:15:20;20.27;;;13.20;;
63112;SDS011;49206;48.020;21.378;2023-04-15T03:16:25;19.33;;;12.07;;
63112;SDS011;49206;48.020;21.378;2023-04-15T03:17:29;20.60;;;13.15;;
63112;SDS011;49206;48.020;21.378;2023-04-15T03:18:32;24.27;;;12.93;;
63112;SDS011;49206;48.020;21.378;2023-04-15T03:19:37;20.02;;;12.48;;
63112;SDS011;49206;48.020;21.378;2023-04-15T03:20:39;26.27;;;13.65;;
63112;SDS011;49206;48.020;21.378;2023-04-15T03:21:42;26.38;;;13.27;;
63112;SDS011;49206;48.020;21.378;2023-04-15T03:22:44;28.08;;;13.10;;
63112;SDS011;49206;48.020;21.378;2023-04-15T03:23:49;28.90;;;12.70;;
63112;SDS011;49206;48.020;21.378;2023-04-15T03:24:52;27.58;;;13.65;;
63112;SDS011;49206;48.020;21.378;2023-04-15T03:25:54;28.17;;;14.40;;
63112;SDS011;49206;48.020;21.378;2023-04-15T03:26:59;23.95;;;13.27;;
63112;SDS011;49206;48.020;21.378;2023-04-15T03:28:03;23.65;;;13.23;;
63112;SDS011;49206;48.020;21.378;2023-04-15T03:29:06;25.70;;;14.00;;
63112;SDS011;49206;48.020;21.378;2023-04-15T03:30:09;22.80;;;11.85;;
63112;SDS011;49206;48.020;21.378;2023-04-15T03:31:12;23.40;;;13.38;;
63112;SDS011;49206;48.020;21.378;2023-04-15T03:32:15;25.17;;;12.80;;
63112;SDS011;49206;48.020;21.378;2023-04-15T03:33:17;26.85;;;13.93;;
63112;SDS011;49206;48.020;21.378;2023-04-15T03:34:20;24.88;;;14.20;;
63112;SDS011;49206;48.020;21.378;2023-04-15T03:35:22;23.95;;;11.88;;
63112;SDS011;49206;48.020;21.378;2023-04-15T03:36:25;25.20;;;13.70;;
63112;SDS011;49206;48.020;21.378;2023-04-15T03:37:28;21.27;;;13.73;;
63112;SDS011;49206;48.020;21.378;2023-04-15T03:38:30;23.17;;;13.45;;
63112;SDS011;49206;48.020;21.378;2023-04-15T03:39:33;21.23;;;12.93;;
63112;SDS011;49206;48.020;21.378;2023-04-15T03:40:36;27.70;;;14.00;;
63112;SDS011;49206;48.020;21.378;2023-04-15T03:41:41;24.55;;;13.50;;
63112;SDS011;49206;48.020;21.378;2023-04-15T03:42:45;23.65;;;13.15;;
63112;SDS011;49206;48.020;21.378;2023-04-15T03:43:49;21.83;;;14.05;;
63112;SDS011;49206;48.020;21.378;2023-04-15T03:45:03;22.52;;;13.35;;
63112;SDS011;49206;48.020;21.378;2023-04-15T03:46:06;21.88;;;13.27;;
63112;SDS011;49206;48.020;21.378;2023-04-15T03:47:09;22.17;;;13.10;;
63112;SDS011;49206;48.020;21.378;2023-04-15T03:48:11;19.30;;;12.07;;
63112;SDS011;49206;48.020;21.378;2023-04-15T03:49:19;20.70;;;12.00;;
63112;SDS011;49206;48.020;21.378;2023-04-15T03:50:22;17.70;;;12.07;;
63112;SDS011;49206;48.020;21.378;2023-04-15T03:51:24;19.55;;;10.32;;
63112;SDS011;49206;48.020;21.378;2023-04-15T03:52:27;20.05;;;12.57;;
63112;SDS011;49206;48.020;21.378;2023-04-15T03:53:29;19.52;;;11.98;;
63112;SDS011;49206;48.020;21.378;2023-04-15T03:54:32;26.15;;;13.35;;
63112;SDS011;49206;48.020;21.378;2023-04-15T03:55:34;18.50;;;12.00;;
63112;SDS011;49206;48.020;21.378;2023-04-15T03:56:36;17.58;;;11.60;;
63112;SDS011;49206;48.020;21.378;2023-04-15T03:57:38;18.60;;;11.45;;
63112;SDS011;49206;48.020;21.378;2023-04-15T03:58:41;18.67;;;11.50;;
63112;SDS011;49206;48.020;21.378;2023-04-15T03:59:43;18.08;;;10.50;;
63112;SDS011;49206;48.020;21.378;2023-04-15T04:00:46;15.20;;;10.13;;
63112;SDS011;49206;48.020;21.378;2023-04-15T04:01:49;16.05;;;10.43;;
63112;SDS011;49206;48.020;21.378;2023-04-15T04:02:51;15.77;;;10.93;;
63112;SDS011;49206;48.020;21.378;2023-04-15T04:03:54;15.93;;;10.90;;
63112;SDS011;49206;48.020;21.378;2023-04-15T04:04:57;16.75;;;10.43;;
63112;SDS011;49206;48.020;21.378;2023-04-15T04:05:59;17.00;;;11.13;;
63112;SDS011;49206;48.020;21.378;2023-04-15T04:07:02;17.25;;;11.85;;
63112;SDS011;49206;48.020;21.378;2023-04-15T04:08:04;18.65;;;10.98;;
63112;SDS011;49206;48.020;21.378;2023-04-15T04:09:07;18.55;;;11.38;;
63112;SDS011;49206;48.020;21.378;2023-04-15T04:10:11;17.25;;;11.43;;
63112;SDS011;49206;48.020;21.378;2023-04-15T04:11:14;17.23;;;11.63;;
63112;SDS011;49206;48.020;21.378;2023-04-15T04:12:17;18.02;;;13.00;;
63112;SDS011;49206;48.020;21.378;2023-04-15T04:13:19;19.75;;;11.93;;
63112;SDS011;49206;48.020;21.378;2023-04-15T04:14:21;19.20;;;12.18;;
63112;SDS011;49206;48.020;21.378;2023-04-15T04:15:30;17.77;;;10.77;;
63112;SDS011;49206;48.020;21.378;2023-04-15T04:16:32;19.73;;;11.73;;
63112;SDS011;49206;48.020;21.378;2023-04-15T04:17:35;20.02;;;12.45;;
63112;SDS011;49206;48.020;21.378;2023-04-15T04:18:37;19.33;;;11.07;;
63112;SDS011;49206;48.020;21.378;2023-04-15T04:19:40;17.50;;;11.77;;
63112;SDS011;49206;48.020;21.378;2023-04-15T04:20:42;18.85;;;11.73;;
63112;SDS011;49206;48.020;21.378;2023-04-15T04:21:45;17.13;;;11.35;;
63112;SDS011;49206;48.020;21.378;2023-04-15T04:22:47;18.20;;;11.20;;
63112;SDS011;49206;48.020;21.378;2023-04-15T04:23:49;17.40;;;10.95;;
63112;SDS011;49206;48.020;21.378;2023-04-15T04:24:52;20.88;;;12.32;;
63112;SDS011;49206;48.020;21.378;2023-04-15T04:25:54;21.17;;;12.38;;
63112;SDS011;49206;48.020;21.378;2023-04-15T04:26:57;22.33;;;13.18;;
63112;SDS011;49206;48.020;21.378;2023-04-15T04:27:59;20.13;;;11.93;;
63112;SDS011;49206;48.020;21.378;2023-04-15T04:29:02;20.08;;;12.15;;
63112;SDS011;49206;48.020;21.378;2023-04-15T04:30:05;16.90;;;11.40;;
63112;SDS011;49206;48.020;21.378;2023-04-15T04:31:08;18.60;;;11.88;;
63112;SDS011;49206;48.020;21.378;2023-04-15T04:32:10;19.20;;;12.38;;
63112;SDS011;49206;48.020;21.378;2023-04-15T04:33:13;19.02;;;12.02;;
63112;SDS011;49206;48.020;21.378;2023-04-15T04:34:15;20.10;;;12.75;;
63112;SDS011;49206;48.020;21.378;2023-04-15T04:35:17;19.23;;;12.20;;
63112;SDS011;49206;48.020;21.378;2023-04-15T04:36:20;17.35;;;10.55;;
63112;SDS011;49206;48.020;21.378;2023-04-15T04:37:22;17.50;;;11.93;;
63112;SDS011;49206;48.020;21.378;2023-04-15T04:38:25;17.88;;;11.90;;
63112;SDS011;49206;48.020;21.378;2023-04-15T04:39:28;16.45;;;11.05;;
63112;SDS011;49206;48.020;21.378;2023-04-15T04:40:30;17.23;;;12.02;;
63112;SDS011;49206;48.020;21.378;2023-04-15T04:41:33;17.10;;;11.18;;
63112;SDS011;49206;48.020;21.378;2023-04-15T04:42:35;16.13;;;11.38;;
63112;SDS011;49206;48.020;21.378;2023-04-15T04:43:40;17.17;;;11.40;;
63112;SDS011;49206;48.020;21.378;2023-04-15T04:44:43;16.48;;;10.68;;
63112;SDS011;49206;48.020;21.378;2023-04-15T04:45:45;15.55;;;10.30;;
63112;SDS011;49206;48.020;21.378;2023-04-15T04:46:48;16.65;;;11.48;;
63112;SDS011;49206;48.020;21.378;2023-04-15T04:47:50;15.98;;;10.73;;
63112;SDS011;49206;48.020;21.378;2023-04-15T04:48:53;16.83;;;10.80;;
63112;SDS011;49206;48.020;21.378;2023-04-15T04:49:55;14.38;;;10.27;;
63112;SDS011;49206;48.020;21.378;2023-04-15T04:50:58;17.40;;;11.40;;
63112;SDS011;49206;48.020;21.378;2023-04-15T04:52:00;16.42;;;10.65;;
63112;SDS011;49206;48.020;21.378;2023-04-15T04:53:03;17.75;;;11.50;;
63112;SDS011;49206;48.020;21.378;2023-04-15T04:54:05;16.15;;;10.93;;
63112;SDS011;49206;48.020;21.378;2023-04-15T04:55:08;17.90;;;11.23;;
63112;SDS011;49206;48.020;21.378;2023-04-15T04:56:11;16.50;;;10.85;;
63112;SDS011;49206;48.020;21.378;2023-04-15T04:57:13;15.45;;;11.55;;
63112;SDS011;49206;48.020;21.378;2023-04-15T04:58:16;16.88;;;10.50;;
63112;SDS011;49206;48.020;21.378;2023-04-15T04:59:18;16.65;;;11.23;;
63112;SDS011;49206;48.020;21.378;2023-04-15T05:00:20;15.70;;;10.32;;
63112;SDS011;49206;48.020;21.378;2023-04-15T05:01:23;15.90;;;10.73;;
63112;SDS011;49206;48.020;21.378;2023-04-15T05:02:27;14.88;;;10.25;;
63112;SDS011;49206;48.020;21.378;2023-04-15T05:03:30;16.77;;;11.13;;
63112;SDS011;49206;48.020;21.378;2023-04-15T05:04:32;15.00;;;10.55;;
63112;SDS011;49206;48.020;21.378;2023-04-15T05:05:35;18.27;;;11.68;;
63112;SDS011;49206;48.020;21.378;2023-04-15T05:06:40;18.85;;;11.80;;
63112;SDS011;49206;48.020;21.378;2023-04-15T05:07:42;18.55;;;11.65;;
63112;SDS011;49206;48.020;21.378;2023-04-15T05:08:45;20.45;;;11.43;;
63112;SDS011;49206;48.020;21.378;2023-04-15T05:09:48;18.67;;;11.48;;
63112;SDS011;49206;48.020;21.378;2023-04-15T05:10:50;16.23;;;10.95;;
63112;SDS011;49206;48.020;21.378;2023-04-15T05:11:53;21.08;;;10.98;;
63112;SDS011;49206;48.020;21.378;2023-04-15T05:12:55;108.43;;;43.30;;
63112;SDS011;49206;48.020;21.378;2023-04-15T05:13:58;127.60;;;52.78;;
63112;SDS011;49206;48.020;21.378;2023-04-15T05:15:04;96.60;;;42.95;;
63112;SDS011;49206;48.020;21.378;2023-04-15T05:16:07;98.72;;;40.50;;
63112;SDS011;49206;48.020;21.378;2023-04-15T05:17:10;85.05;;;39.03;;
63112;SDS011;49206;48.020;21.378;2023-04-15T05:18:13;85.70;;;37.38;;
63112;SDS011;49206;48.020;21.378;2023-04-15T05:19:15;72.43;;;35.00;;
63112;SDS011;49206;48.020;21.378;2023-04-15T05:20:18;70.90;;;36.63;;
63112;SDS011;49206;48.020;21.378;2023-04-15T05:21:20;65.85;;;34.55;;
63112;SDS011;49206;48.020;21.378;2023-04-15T05:22:23;67.63;;;38.72;;
63112;SDS011;49206;48.020;21.378;2023-04-15T05:23:26;62.67;;;36.53;;
63112;SDS011;49206;48.020;21.378;2023-04-15T05:24:28;67.30;;;35.90;;
63112;SDS011;49206;48.020;21.378;2023-04-15T05:25:31;52.22;;;30.10;;
63112;SDS011;49206;48.020;21.378;2023-04-15T05:26:33;47.85;;;28.27;;
63112;SDS011;49206;48.020;21.378;2023-04-15T05:27:36;35.22;;;20.55;;
63112;SDS011;49206;48.020;21.378;2023-04-15T05:28:38;30.83;;;18.27;;
63112;SDS011;49206;48.020;21.378;2023-04-15T05:29:41;25.98;;;16.98;;
63112;SDS011;49206;48.020;21.378;2023-04-15T05:30:43;25.88;;;16.00;;
63112;SDS011;49206;48.020;21.378;2023-04-15T05:31:46;28.63;;;15.40;;
63112;SDS011;49206;48.020;21.378;2023-04-15T05:32:49;24.77;;;15.95;;
63112;SDS011;49206;48.020;21.378;2023-04-15T05:33:52;31.20;;;14.23;;
63112;SDS011;49206;48.020;21.378;2023-04-15T05:34:54;27.83;;;14.20;;
63112;SDS011;49206;48.020;21.378;2023-04-15T05:35:57;22.70;;;12.85;;
63112;SDS011;49206;48.020;21.378;2023-04-15T05:36:59;22.73;;;13.07;;
63112;SDS011;49206;48.020;21.378;2023-04-15T05:38:02;25.08;;;13.73;;
63112;SDS011;49206;48.020;21.378;2023-04-15T05:39:04;23.00;;;13.68;;
63112;SDS011;49206;48.020;21.378;2023-04-15T05:40:07;24.38;;;14.43;;
63112;SDS011;49206;48.020;21.378;2023-04-15T05:41:11;21.33;;;13.88;;
63112;SDS011;49206;48.020;21.378;2023-04-15T05:42:14;22.77;;;13.20;;
63112;SDS011;49206;48.020;21.378;2023-04-15T05:43:16;25.20;;;13.30;;
63112;SDS011;49206;48.020;21.378;2023-04-15T05:44:19;23.33;;;12.43;;
63112;SDS011;49206;48.020;21.378;2023-04-15T05:45:21;30.23;;;12.68;;
63112;SDS011;49206;48.020;21.378;2023-04-15T05:46:24;20.80;;;11.88;;
63112;SDS011;49206;48.020;21.378;2023-04-15T05:47:26;17.52;;;11.75;;
63112;SDS011;49206;48.020;21.378;2023-04-15T05:48:29;17.95;;;11.38;;
63112;SDS011;49206;48.020;21.378;2023-04-15T05:49:31;17.45;;;12.52;;
63112;SDS011;49206;48.020;21.378;2023-04-15T05:50:34;20.73;;;13.35;;
63112;SDS011;49206;48.020;21.378;2023-04-15T05:51:37;15.23;;;11.05;;
63112;SDS011;49206;48.020;21.378;2023-04-15T05:52:39;19.63;;;12.55;;
63112;SDS011;49206;48.020;21.378;2023-04-15T05:53:44;17.00;;;11.70;;
63112;SDS011;49206;48.020;21.378;2023-04-15T05:54:49;14.57;;;9.60;;
63112;SDS011;49206;48.020;21.378;2023-04-15T05:55:51;14.25;;;10.30;;
63112;SDS011;49206;48.020;21.378;2023-04-15T05:56:54;17.73;;;10.70;;
63112;SDS011;49206;48.020;21.378;2023-04-15T05:57:59;14.50;;;10.68;;
63112;SDS011;49206;48.020;21.378;2023-04-15T05:59:02;16.02;;;11.32;;
63112;SDS011;49206;48.020;21.378;2023-04-15T06:00:12;16.63;;;11.25;;
63112;SDS011;49206;48.020;21.378;2023-04-15T06:01:17;13.77;;;9.77;;
63112;SDS011;49206;48.020;21.378;2023-04-15T06:02:19;15.63;;;10.40;;
63112;SDS011;49206;48.020;21.378;2023-04-15T06:03:23;17.25;;;11.43;;
63112;SDS011;49206;48.020;21.378;2023-04-15T06:04:26;15.85;;;11.63;;